logo
Search for airport 
image banner adimage banner adimage banner ad
image banner ad

FAUH - Uitenhage

Located in Uitenhage, South Africa

ICAO - FAUH, IATA -

Data provided by Airmate  

General information

Coordinates: S33°46'60" E25°22'60"
Elevation is 285 feet MSL.
 
View others Airports in Eastern Cape

Operational data

Special qualification required
Current time UTC:
Current local time:
METAR: FAPE 282000Z 00000KT CAVOK 15/06 Q1018 NOSIG
TAF: TAF FAPE 281600Z 2818/2918 35004KT CAVOK TX29/2911Z TN13/2904Z BECMG 2912/2914 16005KT
View NOTAMs / SUP AIP / TFR affecting this airport [VIEW]
Communications frequencies: [VIEW]

Runways:

RWY identifierQFULength (ft)Width (ft)SurfaceLDA (ft)
08262582UNK
26262582UNK
1600UNK
3400UNK

Airport contact information

Address: Uitenhage South Africa

Satellite view of FAUH